sensor_id;sensor_type;location;lat;lon;timestamp;temperature;humidity
61000;SHT31;46879;45.658;11.814;2023-06-10T00:03:54;25.29;67.69
61000;SHT31;46879;45.658;11.814;2023-06-10T00:08:54;25.29;67.76
61000;SHT31;46879;45.658;11.814;2023-06-10T00:13:55;25.31;67.63
61000;SHT31;46879;45.658;11.814;2023-06-10T00:18:56;25.28;67.57
61000;SHT31;46879;45.658;11.814;2023-06-10T00:24:01;25.31;67.63
61000;SHT31;46879;45.658;11.814;2023-06-10T00:29:03;25.31;67.78
61000;SHT31;46879;45.658;11.814;2023-06-10T00:34:04;25.29;67.75
61000;SHT31;46879;45.658;11.814;2023-06-10T00:39:04;25.29;67.82
61000;SHT31;46879;45.658;11.814;2023-06-10T00:44:05;25.32;67.74
61000;SHT31;46879;45.658;11.814;2023-06-10T00:49:05;25.32;67.81
61000;SHT31;46879;45.658;11.814;2023-06-10T00:54:07;25.32;67.91
61000;SHT31;46879;45.658;11.814;2023-06-10T00:59:07;25.32;67.89
61000;SHT31;46879;45.658;11.814;2023-06-10T01:04:08;25.35;67.86
61000;SHT31;46879;45.658;11.814;2023-06-10T01:09:25;25.36;67.97
61000;SHT31;46879;45.658;11.814;2023-06-10T01:14:31;25.29;67.99
61000;SHT31;46879;45.658;11.814;2023-06-10T01:19:32;25.32;68.02
61000;SHT31;46879;45.658;11.814;2023-06-10T01:24:34;25.34;68.09
61000;SHT31;46879;45.658;11.814;2023-06-10T01:29:51;25.34;68.03
61000;SHT31;46879;45.658;11.814;2023-06-10T01:34:54;25.34;68.02
61000;SHT31;46879;45.658;11.814;2023-06-10T01:40:00;25.34;68.15
61000;SHT31;46879;45.658;11.814;2023-06-10T01:45:04;25.35;68.09
61000;SHT31;46879;45.658;11.814;2023-06-10T01:50:06;25.35;68.09
61000;SHT31;46879;45.658;11.814;2023-06-10T01:55:06;25.34;68.05
61000;SHT31;46879;45.658;11.814;2023-06-10T02:00:08;25.35;68.00
61000;SHT31;46879;45.658;11.814;2023-06-10T02:05:09;25.35;68.05
61000;SHT31;46879;45.658;11.814;2023-06-10T02:10:09;25.35;67.94
61000;SHT31;46879;45.658;11.814;2023-06-10T02:15:10;25.35;68.02
61000;SHT31;46879;45.658;11.814;2023-06-10T02:20:11;25.34;67.93
61000;SHT31;46879;45.658;11.814;2023-06-10T02:25:12;25.34;68.01
61000;SHT31;46879;45.658;11.814;2023-06-10T02:30:13;25.36;67.88
61000;SHT31;46879;45.658;11.814;2023-06-10T02:35:14;25.34;67.90
61000;SHT31;46879;45.658;11.814;2023-06-10T02:40:16;25.34;67.89
61000;SHT31;46879;45.658;11.814;2023-06-10T02:45:16;25.35;67.81
61000;SHT31;46879;45.658;11.814;2023-06-10T02:50:17;25.34;67.75
61000;SHT31;46879;45.658;11.814;2023-06-10T02:55:17;25.34;67.63
61000;SHT31;46879;45.658;11.814;2023-06-10T03:00:18;25.34;67.41
61000;SHT31;46879;45.658;11.814;2023-06-10T03:05:20;25.34;67.36
61000;SHT31;46879;45.658;11.814;2023-06-10T03:10:22;25.34;67.37
61000;SHT31;46879;45.658;11.814;2023-06-10T03:15:23;25.31;67.28
61000;SHT31;46879;45.658;11.814;2023-06-10T03:20:24;25.31;67.16
61000;SHT31;46879;45.658;11.814;2023-06-10T03:25:26;25.28;67.13
61000;SHT31;46879;45.658;11.814;2023-06-10T03:30:27;25.31;67.14
61000;SHT31;46879;45.658;11.814;2023-06-10T03:35:31;25.32;67.08
61000;SHT31;46879;45.658;11.814;2023-06-10T03:40:32;25.34;67.05
61000;SHT31;46879;45.658;11.814;2023-06-10T03:45:33;25.32;66.91
61000;SHT31;46879;45.658;11.814;2023-06-10T03:50:35;25.28;66.94
61000;SHT31;46879;45.658;11.814;2023-06-10T03:55:36;25.29;66.94
61000;SHT31;46879;45.658;11.814;2023-06-10T04:00:37;25.29;66.95
61000;SHT31;46879;45.658;11.814;2023-06-10T04:05:41;25.29;67.10
61000;SHT31;46879;45.658;11.814;2023-06-10T04:10:42;25.28;67.04
61000;SHT31;46879;45.658;11.814;2023-06-10T04:15:42;25.28;67.05
61000;SHT31;46879;45.658;11.814;2023-06-10T04:20:43;25.26;67.12
61000;SHT31;46879;45.658;11.814;2023-06-10T04:25:45;25.31;67.06
61000;SHT31;46879;45.658;11.814;2023-06-10T04:30:45;25.28;67.24
61000;SHT31;46879;45.658;11.814;2023-06-10T04:35:46;25.28;67.34
61000;SHT31;46879;45.658;11.814;2023-06-10T04:40:47;25.29;67.40
61000;SHT31;46879;45.658;11.814;2023-06-10T04:45:48;25.29;67.39
61000;SHT31;46879;45.658;11.814;2023-06-10T04:50:49;25.29;67.43
61000;SHT31;46879;45.658;11.814;2023-06-10T04:55:50;25.32;67.45
61000;SHT31;46879;45.658;11.814;2023-06-10T05:00:51;25.29;67.49
61000;SHT31;46879;45.658;11.814;2023-06-10T05:05:51;25.29;67.62
61000;SHT31;46879;45.658;11.814;2023-06-10T05:10:52;25.29;67.62
61000;SHT31;46879;45.658;11.814;2023-06-10T05:15:52;25.29;67.55
61000;SHT31;46879;45.658;11.814;2023-06-10T05:20:53;25.31;67.49
61000;SHT31;46879;45.658;11.814;2023-06-10T05:25:54;25.31;67.44
61000;SHT31;46879;45.658;11.814;2023-06-10T05:30:55;25.31;67.58
61000;SHT31;46879;45.658;11.814;2023-06-10T05:35:55;25.31;67.49
61000;SHT31;46879;45.658;11.814;2023-06-10T05:40:56;25.32;67.35
61000;SHT31;46879;45.658;11.814;2023-06-10T05:45:57;25.32;67.31
61000;SHT31;46879;45.658;11.814;2023-06-10T05:50:58;25.34;67.42
61000;SHT31;46879;45.658;11.814;2023-06-10T05:55:58;25.41;67.12
61000;SHT31;46879;45.658;11.814;2023-06-10T06:00:59;25.43;67.71
61000;SHT31;46879;45.658;11.814;2023-06-10T06:06:00;25.41;67.31
61000;SHT31;46879;45.658;11.814;2023-06-10T06:11:00;25.46;67.67
61000;SHT31;46879;45.658;11.814;2023-06-10T06:16:01;25.46;67.78
61000;SHT31;46879;45.658;11.814;2023-06-10T06:21:02;25.49;67.71
61000;SHT31;46879;45.658;11.814;2023-06-10T06:26:02;25.47;67.60
61000;SHT31;46879;45.658;11.814;2023-06-10T06:31:03;25.53;68.29
61000;SHT31;46879;45.658;11.814;2023-06-10T06:36:03;25.52;67.77
61000;SHT31;46879;45.658;11.814;2023-06-10T06:41:04;25.55;67.95
61000;SHT31;46879;45.658;11.814;2023-06-10T06:46:06;25.55;67.95
61000;SHT31;46879;45.658;11.814;2023-06-10T06:51:07;25.53;67.96
61000;SHT31;46879;45.658;11.814;2023-06-10T06:56:08;25.56;68.08
61000;SHT31;46879;45.658;11.814;2023-06-10T07:01:08;25.61;68.24
61000;SHT31;46879;45.658;11.814;2023-06-10T07:06:09;25.59;68.42
61000;SHT31;46879;45.658;11.814;2023-06-10T07:11:09;25.63;68.51
61000;SHT31;46879;45.658;11.814;2023-06-10T07:16:10;25.61;67.63
61000;SHT31;46879;45.658;11.814;2023-06-10T07:21:11;25.56;67.43
61000;SHT31;46879;45.658;11.814;2023-06-10T07:26:11;25.59;66.16
61000;SHT31;46879;45.658;11.814;2023-06-10T07:31:13;25.56;65.51
61000;SHT31;46879;45.658;11.814;2023-06-10T07:36:14;25.61;65.34
61000;SHT31;46879;45.658;11.814;2023-06-10T07:41:14;25.63;65.30
61000;SHT31;46879;45.658;11.814;2023-06-10T07:46:18;25.65;64.73
61000;SHT31;46879;45.658;11.814;2023-06-10T07:51:18;25.66;63.87
61000;SHT31;46879;45.658;11.814;2023-06-10T07:56:19;25.35;62.52
61000;SHT31;46879;45.658;11.814;2023-06-10T08:01:23;25.56;62.40
61000;SHT31;46879;45.658;11.814;2023-06-10T08:06:24;25.58;62.31
61000;SHT31;46879;45.658;11.814;2023-06-10T08:11:24;25.41;60.70
61000;SHT31;46879;45.658;11.814;2023-06-10T08:16:27;25.53;60.65
61000;SHT31;46879;45.658;11.814;2023-06-10T08:21:28;25.59;60.86
61000;SHT31;46879;45.658;11.814;2023-06-10T08:26:28;25.59;60.90
61000;SHT31;46879;45.658;11.814;2023-06-10T08:31:29;25.61;61.51
61000;SHT31;46879;45.658;11.814;2023-06-10T08:36:30;25.62;61.68
61000;SHT31;46879;45.658;11.814;2023-06-10T08:41:37;25.61;61.57
61000;SHT31;46879;45.658;11.814;2023-06-10T08:46:43;25.62;61.37
61000;SHT31;46879;45.658;11.814;2023-06-10T08:51:45;25.63;61.69
61000;SHT31;46879;45.658;11.814;2023-06-10T08:56:50;25.63;61.45
61000;SHT31;46879;45.658;11.814;2023-06-10T09:01:52;25.63;61.68
61000;SHT31;46879;45.658;11.814;2023-06-10T09:06:54;25.62;61.76
61000;SHT31;46879;45.658;11.814;2023-06-10T09:11:55;25.61;62.24
61000;SHT31;46879;45.658;11.814;2023-06-10T09:16:56;25.65;62.12
61000;SHT31;46879;45.658;11.814;2023-06-10T09:21:58;25.62;62.19
61000;SHT31;46879;45.658;11.814;2023-06-10T09:27:07;25.63;62.58
61000;SHT31;46879;45.658;11.814;2023-06-10T09:32:08;25.66;62.60
61000;SHT31;46879;45.658;11.814;2023-06-10T09:37:09;25.67;62.61
61000;SHT31;46879;45.658;11.814;2023-06-10T09:42:18;25.67;62.60
61000;SHT31;46879;45.658;11.814;2023-06-10T09:47:20;25.67;62.59
61000;SHT31;46879;45.658;11.814;2023-06-10T09:52:24;25.70;62.62
61000;SHT31;46879;45.658;11.814;2023-06-10T09:57:25;25.67;62.66
61000;SHT31;46879;45.658;11.814;2023-06-10T10:02:26;25.70;62.70
61000;SHT31;46879;45.658;11.814;2023-06-10T10:07:26;25.69;62.70
61000;SHT31;46879;45.658;11.814;2023-06-10T10:12:27;25.72;62.73
61000;SHT31;46879;45.658;11.814;2023-06-10T10:17:30;25.74;62.74
61000;SHT31;46879;45.658;11.814;2023-06-10T10:22:38;25.77;62.68
61000;SHT31;46879;45.658;11.814;2023-06-10T10:27:51;25.77;62.74
61000;SHT31;46879;45.658;11.814;2023-06-10T10:33:09;25.77;62.77
61000;SHT31;46879;45.658;11.814;2023-06-10T10:38:12;25.77;62.80
61000;SHT31;46879;45.658;11.814;2023-06-10T10:43:14;25.76;62.88
61000;SHT31;46879;45.658;11.814;2023-06-10T10:48:14;25.74;62.84
61000;SHT31;46879;45.658;11.814;2023-06-10T10:53:20;25.73;62.88
61000;SHT31;46879;45.658;11.814;2023-06-10T10:58:24;25.74;62.91
61000;SHT31;46879;45.658;11.814;2023-06-10T11:03:29;25.77;62.88
61000;SHT31;46879;45.658;11.814;2023-06-10T11:13:32;25.79;62.86
61000;SHT31;46879;45.658;11.814;2023-06-10T11:18:39;25.83;62.90
61000;SHT31;46879;45.658;11.814;2023-06-10T11:23:41;25.83;62.90
61000;SHT31;46879;45.658;11.814;2023-06-10T11:29:04;25.81;63.03
61000;SHT31;46879;45.658;11.814;2023-06-10T11:34:06;25.81;63.00
61000;SHT31;46879;45.658;11.814;2023-06-10T11:39:07;25.79;63.04
61000;SHT31;46879;45.658;11.814;2023-06-10T11:44:09;25.80;63.05
61000;SHT31;46879;45.658;11.814;2023-06-10T11:49:11;25.80;63.05
61000;SHT31;46879;45.658;11.814;2023-06-10T11:54:12;25.81;63.05
61000;SHT31;46879;45.658;11.814;2023-06-10T11:59:13;25.79;63.09
61000;SHT31;46879;45.658;11.814;2023-06-10T12:04:15;25.79;63.11
61000;SHT31;46879;45.658;11.814;2023-06-10T12:09:27;25.80;63.13
61000;SHT31;46879;45.658;11.814;2023-06-10T12:14:56;25.81;63.22
61000;SHT31;46879;45.658;11.814;2023-06-10T12:19:58;25.80;63.11
61000;SHT31;46879;45.658;11.814;2023-06-10T12:25:02;25.81;63.14
61000;SHT31;46879;45.658;11.814;2023-06-10T12:30:05;25.80;63.21
61000;SHT31;46879;45.658;11.814;2023-06-10T12:35:07;25.81;63.25
61000;SHT31;46879;45.658;11.814;2023-06-10T12:40:09;25.80;63.29
61000;SHT31;46879;45.658;11.814;2023-06-10T12:45:10;25.80;63.43
61000;SHT31;46879;45.658;11.814;2023-06-10T12:50:12;25.80;63.40
61000;SHT31;46879;45.658;11.814;2023-06-10T12:55:12;25.80;63.45
61000;SHT31;46879;45.658;11.814;2023-06-10T13:00:13;25.83;63.69
61000;SHT31;46879;45.658;11.814;2023-06-10T13:05:14;25.84;63.52
61000;SHT31;46879;45.658;11.814;2023-06-10T13:10:16;25.84;63.49
61000;SHT31;46879;45.658;11.814;2023-06-10T13:15:18;25.83;63.55
61000;SHT31;46879;45.658;11.814;2023-06-10T13:20:19;25.86;63.49
61000;SHT31;46879;45.658;11.814;2023-06-10T13:25:21;25.84;63.47
61000;SHT31;46879;45.658;11.814;2023-06-10T13:30:21;25.83;63.55
61000;SHT31;46879;45.658;11.814;2023-06-10T13:35:22;25.86;63.51
61000;SHT31;46879;45.658;11.814;2023-06-10T13:40:22;25.84;63.47
61000;SHT31;46879;45.658;11.814;2023-06-10T13:45:23;25.87;63.51
61000;SHT31;46879;45.658;11.814;2023-06-10T13:50:25;25.87;63.43
61000;SHT31;46879;45.658;11.814;2023-06-10T13:55:25;25.84;63.42
61000;SHT31;46879;45.658;11.814;2023-06-10T14:00:29;25.84;63.46
61000;SHT31;46879;45.658;11.814;2023-06-10T14:05:30;25.84;63.61
61000;SHT31;46879;45.658;11.814;2023-06-10T14:10:30;25.87;63.97
61000;SHT31;46879;45.658;11.814;2023-06-10T14:15:31;25.89;63.81
61000;SHT31;46879;45.658;11.814;2023-06-10T14:20:32;25.86;63.69
61000;SHT31;46879;45.658;11.814;2023-06-10T14:25:33;25.87;63.75
61000;SHT31;46879;45.658;11.814;2023-06-10T14:30:34;25.84;63.75
61000;SHT31;46879;45.658;11.814;2023-06-10T14:35:34;25.87;63.74
61000;SHT31;46879;45.658;11.814;2023-06-10T14:40:36;25.86;63.70
61000;SHT31;46879;45.658;11.814;2023-06-10T14:45:38;25.86;63.68
61000;SHT31;46879;45.658;11.814;2023-06-10T14:50:39;25.87;63.64
61000;SHT31;46879;45.658;11.814;2023-06-10T14:55:41;25.86;63.62
61000;SHT31;46879;45.658;11.814;2023-06-10T15:00:42;25.86;63.61
61000;SHT31;46879;45.658;11.814;2023-06-10T15:05:42;25.89;63.65
61000;SHT31;46879;45.658;11.814;2023-06-10T15:10:43;25.86;63.62
61000;SHT31;46879;45.658;11.814;2023-06-10T15:15:43;25.86;63.61
61000;SHT31;46879;45.658;11.814;2023-06-10T15:20:45;25.89;63.61
61000;SHT31;46879;45.658;11.814;2023-06-10T15:25:46;25.87;63.60
61000;SHT31;46879;45.658;11.814;2023-06-10T15:30:47;25.87;63.59
61000;SHT31;46879;45.658;11.814;2023-06-10T15:35:47;25.87;63.53
61000;SHT31;46879;45.658;11.814;2023-06-10T15:40:48;25.87;63.52
61000;SHT31;46879;45.658;11.814;2023-06-10T15:45:48;25.90;63.49
61000;SHT31;46879;45.658;11.814;2023-06-10T15:50:49;25.87;63.46
61000;SHT31;46879;45.658;11.814;2023-06-10T15:55:50;25.87;63.45
61000;SHT31;46879;45.658;11.814;2023-06-10T16:00:50;25.86;63.51
61000;SHT31;46879;45.658;11.814;2023-06-10T16:05:51;25.90;63.39
61000;SHT31;46879;45.658;11.814;2023-06-10T16:10:51;25.90;63.38
61000;SHT31;46879;45.658;11.814;2023-06-10T16:15:52;25.93;63.35
61000;SHT31;46879;45.658;11.814;2023-06-10T16:20:53;25.94;63.34
61000;SHT31;46879;45.658;11.814;2023-06-10T16:25:53;25.97;63.33
61000;SHT31;46879;45.658;11.814;2023-06-10T16:30:54;25.96;63.30
61000;SHT31;46879;45.658;11.814;2023-06-10T16:35:54;25.94;63.33
61000;SHT31;46879;45.658;11.814;2023-06-10T16:40:55;25.91;63.39
61000;SHT31;46879;45.658;11.814;2023-06-10T16:45:57;25.90;63.47
61000;SHT31;46879;45.658;11.814;2023-06-10T16:50:58;25.91;63.33
61000;SHT31;46879;45.658;11.814;2023-06-10T16:55:58;25.87;63.30
61000;SHT31;46879;45.658;11.814;2023-06-10T17:01:05;25.89;63.24
61000;SHT31;46879;45.658;11.814;2023-06-10T17:06:06;25.86;63.20
61000;SHT31;46879;45.658;11.814;2023-06-10T17:11:07;25.83;63.10
61000;SHT31;46879;45.658;11.814;2023-06-10T17:16:07;25.81;62.99
61000;SHT31;46879;45.658;11.814;2023-06-10T17:21:08;25.83;63.18
61000;SHT31;46879;45.658;11.814;2023-06-10T17:26:08;25.81;63.21
61000;SHT31;46879;45.658;11.814;2023-06-10T17:31:09;25.81;63.21
61000;SHT31;46879;45.658;11.814;2023-06-10T17:36:10;25.81;63.27
61000;SHT31;46879;45.658;11.814;2023-06-10T17:41:10;25.80;63.35
61000;SHT31;46879;45.658;11.814;2023-06-10T17:46:11;25.77;63.36
61000;SHT31;46879;45.658;11.814;2023-06-10T17:51:12;25.77;63.39
61000;SHT31;46879;45.658;11.814;2023-06-10T17:56:12;25.76;63.43
61000;SHT31;46879;45.658;11.814;2023-06-10T18:01:13;25.76;63.45
61000;SHT31;46879;45.658;11.814;2023-06-10T18:06:14;25.74;63.46
61000;SHT31;46879;45.658;11.814;2023-06-10T18:11:14;25.74;63.48
61000;SHT31;46879;45.658;11.814;2023-06-10T18:16:15;25.73;63.55
61000;SHT31;46879;45.658;11.814;2023-06-10T18:21:16;25.72;63.51
61000;SHT31;46879;45.658;11.814;2023-06-10T18:26:16;25.70;63.55
61000;SHT31;46879;45.658;11.814;2023-06-10T18:31:17;25.72;63.60
61000;SHT31;46879;45.658;11.814;2023-06-10T18:36:18;25.70;63.60
61000;SHT31;46879;45.658;11.814;2023-06-10T18:41:18;25.67;63.67
61000;SHT31;46879;45.658;11.814;2023-06-10T18:46:25;25.70;63.73
61000;SHT31;46879;45.658;11.814;2023-06-10T18:51:27;25.66;63.94
61000;SHT31;46879;45.658;11.814;2023-06-10T18:56:28;25.66;63.96
61000;SHT31;46879;45.658;11.814;2023-06-10T19:01:29;25.65;64.06
61000;SHT31;46879;45.658;11.814;2023-06-10T19:06:29;25.62;64.08
61000;SHT31;46879;45.658;11.814;2023-06-10T19:11:36;25.62;64.43
61000;SHT31;46879;45.658;11.814;2023-06-10T19:16:47;25.61;64.62
61000;SHT31;46879;45.658;11.814;2023-06-10T19:21:57;25.53;64.89
61000;SHT31;46879;45.658;11.814;2023-06-10T19:27:00;25.42;63.60
61000;SHT31;46879;45.658;11.814;2023-06-10T19:32:01;25.06;62.77
61000;SHT31;46879;45.658;11.814;2023-06-10T19:37:01;25.31;62.03
61000;SHT31;46879;45.658;11.814;2023-06-10T19:42:02;24.52;64.17
61000;SHT31;46879;45.658;11.814;2023-06-10T19:47:09;25.00;63.89
61000;SHT31;46879;45.658;11.814;2023-06-10T19:52:13;25.14;63.68
61000;SHT31;46879;45.658;11.814;2023-06-10T19:57:13;25.22;63.64
61000;SHT31;46879;45.658;11.814;2023-06-10T20:02:14;25.15;63.85
61000;SHT31;46879;45.658;11.814;2023-06-10T20:07:14;25.21;63.72
61000;SHT31;46879;45.658;11.814;2023-06-10T20:12:15;25.22;63.87
61000;SHT31;46879;45.658;11.814;2023-06-10T20:17:21;25.15;64.49
61000;SHT31;46879;45.658;11.814;2023-06-10T20:22:24;25.17;64.62
61000;SHT31;46879;45.658;11.814;2023-06-10T20:27:24;25.18;64.28
61000;SHT31;46879;45.658;11.814;2023-06-10T20:32:25;25.15;64.15
61000;SHT31;46879;45.658;11.814;2023-06-10T20:37:25;25.15;64.04
61000;SHT31;46879;45.658;11.814;2023-06-10T20:42:26;24.95;64.73
61000;SHT31;46879;45.658;11.814;2023-06-10T20:47:27;24.87;64.68
61000;SHT31;46879;45.658;11.814;2023-06-10T20:52:27;24.92;64.76
61000;SHT31;46879;45.658;11.814;2023-06-10T20:57:28;25.00;64.56
61000;SHT31;46879;45.658;11.814;2023-06-10T21:02:29;25.00;64.55
61000;SHT31;46879;45.658;11.814;2023-06-10T21:07:29;24.98;64.38
61000;SHT31;46879;45.658;11.814;2023-06-10T21:12:30;24.95;64.19
61000;SHT31;46879;45.658;11.814;2023-06-10T21:17:31;24.48;65.42
61000;SHT31;46879;45.658;11.814;2023-06-10T21:22:31;24.80;64.43
61000;SHT31;46879;45.658;11.814;2023-06-10T21:27:32;24.79;64.36
61000;SHT31;46879;45.658;11.814;2023-06-10T21:32:33;24.80;64.58
61000;SHT31;46879;45.658;11.814;2023-06-10T21:37:33;24.83;64.62
61000;SHT31;46879;45.658;11.814;2023-06-10T21:42:34;24.63;64.72
61000;SHT31;46879;45.658;11.814;2023-06-10T21:47:35;24.76;64.40
61000;SHT31;46879;45.658;11.814;2023-06-10T21:52:35;24.81;64.34
61000;SHT31;46879;45.658;11.814;2023-06-10T21:57:36;24.80;64.48
61000;SHT31;46879;45.658;11.814;2023-06-10T22:02:40;24.81;64.75
61000;SHT31;46879;45.658;11.814;2023-06-10T22:07:41;24.79;64.98
61000;SHT31;46879;45.658;11.814;2023-06-10T22:12:41;24.81;64.97
61000;SHT31;46879;45.658;11.814;2023-06-10T22:17:42;24.76;65.16
61000;SHT31;46879;45.658;11.814;2023-06-10T22:22:43;24.79;65.23
61000;SHT31;46879;45.658;11.814;2023-06-10T22:27:43;24.77;65.98
61000;SHT31;46879;45.658;11.814;2023-06-10T22:32:44;24.77;65.94
61000;SHT31;46879;45.658;11.814;2023-06-10T22:37:45;24.80;66.54
61000;SHT31;46879;45.658;11.814;2023-06-10T22:42:45;24.80;66.60
61000;SHT31;46879;45.658;11.814;2023-06-10T22:47:46;24.83;66.56
61000;SHT31;46879;45.658;11.814;2023-06-10T22:52:47;24.84;66.25
61000;SHT31;46879;45.658;11.814;2023-06-10T22:57:48;24.84;66.23
61000;SHT31;46879;45.658;11.814;2023-06-10T23:02:48;24.84;66.37
61000;SHT31;46879;45.658;11.814;2023-06-10T23:07:49;24.87;66.44
61000;SHT31;46879;45.658;11.814;2023-06-10T23:12:50;24.88;66.23
61000;SHT31;46879;45.658;11.814;2023-06-10T23:17:50;24.88;66.27
61000;SHT31;46879;45.658;11.814;2023-06-10T23:22:55;24.91;66.33
61000;SHT31;46879;45.658;11.814;2023-06-10T23:27:56;24.91;66.45
61000;SHT31;46879;45.658;11.814;2023-06-10T23:32:56;24.92;66.47
61000;SHT31;46879;45.658;11.814;2023-06-10T23:37:58;24.94;66.49
61000;SHT31;46879;45.658;11.814;2023-06-10T23:42:59;24.95;66.09
61000;SHT31;46879;45.658;11.814;2023-06-10T23:47:59;24.95;66.25
61000;SHT31;46879;45.658;11.814;2023-06-10T23:53:00;24.95;66.51
61000;SHT31;46879;45.658;11.814;2023-06-10T23:58:01;24.98;66.39
